Terminal Aerodrome Forecast
Issued by NWS

Home | Current Version | Previous Version | Text Only | Print | Product List | Glossary On
Versions: 1 2 3 4 5 6 7 8 9 10 11 12 13 14 15
000
FTUS46 KSGX 031122
TAFONT
TAF
KONT 031122Z 0312/0418 VRB04KT P6SM OVC010
     FM031700 24006KT P6SM SCT015
     FM032100 25012G18KT P6SM SKC
     FM040400 24007KT P6SM SCT015
     FM040800 VRB04KT P6SM OVC015
     FM041600 VRB04KT P6SM BKN022=

USA.gov is the U.S. government's official web portal to all federal, state and local government web resources and services.